Time;durP1;ratioP1;P1;durP2;ratioP2;P2;SDS_P1;SDS_P2;PMS_P1;PMS_P2;Temp;Humidity;BMP_temperature;BMP_pressure;BME280_temperature;BME280_humidity;BME280_pressure;Samples;Min_cycle;Max_cycle;Signal;HPM_P1;HPM_P2
2022/01/15 00:01:27;;;;;;;2.10;0.88;;;;;;;14.34;61.50;99739.81;3155258;28;20094;-50
2022/01/15 00:02:59;;;;;;;2.88;0.90;;;;;;;14.34;61.61;99737.16;3156828;28;20052;-48
2022/01/15 00:04:31;;;;;;;1.00;0.80;;;;;;;14.34;61.62;99738.97;3156777;28;20089;-50
2022/01/15 00:06:05;;;;;;;1.52;0.90;;;;;;;14.32;61.53;99731.16;3155532;28;20056;-50
2022/01/15 00:07:38;;;;;;;1.35;1.10;;;;;;;14.32;61.49;99736.47;3156231;28;20070;-49
2022/01/15 00:09:10;;;;;;;1.17;0.63;;;;;;;14.31;61.63;99729.44;3157035;28;20044;-50
2022/01/15 00:10:42;;;;;;;0.93;0.85;;;;;;;14.30;61.57;99733.94;3152575;28;20063;-50
2022/01/15 00:12:14;;;;;;;1.58;1.48;;;;;;;14.30;61.57;99730.44;3155379;28;20048;-49
2022/01/15 00:13:53;;;;;;;0.77;0.73;;;;;;;14.29;61.55;99731.41;3156372;28;20133;-51
2022/01/15 00:15:29;;;;;;;1.10;0.70;;;;;;;14.27;61.62;99734.25;3156067;28;20154;-50
2022/01/15 00:17:06;;;;;;;1.33;0.77;;;;;;;14.26;61.65;99729.03;3156522;28;20056;-50
2022/01/15 00:18:44;;;;;;;0.70;0.70;;;;;;;14.26;61.76;99729.91;3154542;28;20040;-49
2022/01/15 00:20:19;;;;;;;1.65;1.15;;;;;;;14.25;61.67;99727.38;3155948;28;20583;-51
2022/01/15 00:21:52;;;;;;;1.40;0.82;;;;;;;14.24;61.70;99729.22;3155427;28;20048;-51
2022/01/15 00:23:24;;;;;;;0.70;0.70;;;;;;;14.23;61.52;99732.84;3155113;28;20054;-49
2022/01/15 00:24:56;;;;;;;1.35;0.82;;;;;;;14.23;61.59;99721.34;3153979;28;20063;-49
2022/01/15 00:26:28;;;;;;;1.30;1.05;;;;;;;14.22;61.79;99719.66;3155728;28;20587;-51
2022/01/15 00:28:00;;;;;;;2.40;1.00;;;;;;;14.21;61.68;99716.16;3154572;28;20052;-49
2022/01/15 00:29:32;;;;;;;1.73;1.00;;;;;;;14.20;61.66;99710.97;3155888;28;20509;-59
2022/01/15 00:31:04;;;;;;;0.75;0.63;;;;;;;14.20;61.60;99716.31;3152888;28;20058;-51
2022/01/15 00:32:36;;;;;;;1.83;1.00;;;;;;;14.21;61.65;99702.00;3155605;28;20059;-52
2022/01/15 00:34:08;;;;;;;1.30;0.90;;;;;;;14.21;61.90;99710.84;3156306;28;20044;-51
2022/01/15 00:35:40;;;;;;;2.42;0.55;;;;;;;14.24;61.83;99715.03;3155586;28;20040;-51
2022/01/15 00:37:13;;;;;;;0.85;0.70;;;;;;;14.27;61.75;99706.72;3155994;28;20051;-49
2022/01/15 00:38:46;;;;;;;1.33;1.10;;;;;;;14.30;61.58;99715.25;3154701;28;20070;-51
2022/01/15 00:40:21;;;;;;;0.63;0.63;;;;;;;14.35;61.66;99709.50;3155927;28;20473;-50
2022/01/15 00:41:52;;;;;;;1.20;0.90;;;;;;;14.40;61.59;99706.34;3155321;28;20051;-51
2022/01/15 00:43:24;;;;;;;1.33;1.23;;;;;;;14.45;61.53;99704.91;3156492;28;20060;-52
2022/01/15 00:44:57;;;;;;;2.25;1.27;;;;;;;14.50;61.28;99701.81;3155530;28;20124;-50
2022/01/15 00:46:29;;;;;;;0.82;0.80;;;;;;;14.55;61.16;99701.41;3155390;28;20040;-53
2022/01/15 00:48:02;;;;;;;1.70;1.23;;;;;;;14.61;61.22;99703.44;3155500;28;20059;-50
2022/01/15 00:49:34;;;;;;;0.73;0.70;;;;;;;14.65;61.29;99710.16;3155695;28;20125;-53
2022/01/15 00:51:06;;;;;;;0.82;0.82;;;;;;;14.68;61.12;99700.03;3156533;28;20509;-52
2022/01/15 00:52:41;;;;;;;1.65;1.02;;;;;;;14.75;61.10;99705.59;3154659;28;20451;-50
2022/01/15 00:54:13;;;;;;;0.73;0.65;;;;;;;14.80;61.04;99705.13;3153810;28;20047;-50
2022/01/15 00:55:45;;;;;;;1.65;1.15;;;;;;;14.85;60.97;99698.34;3155782;28;20052;-53
2022/01/15 00:57:17;;;;;;;2.15;0.90;;;;;;;14.92;60.84;99707.41;3155292;28;20067;-49
2022/01/15 00:58:52;;;;;;;1.38;1.05;;;;;;;14.94;60.84;99704.59;3155777;28;20043;-50
2022/01/15 01:00:25;;;;;;;1.15;0.70;;;;;;;14.98;60.99;99706.78;3150366;28;20063;-53
2022/01/15 01:01:57;;;;;;;1.08;0.65;;;;;;;15.03;60.79;99705.50;3150584;28;20571;-51
2022/01/15 01:03:28;;;;;;;0.63;0.50;;;;;;;15.06;60.72;99702.53;3153085;28;20047;-50
2022/01/15 01:05:00;;;;;;;1.00;0.80;;;;;;;15.10;60.69;99698.53;3153191;28;20048;-51
2022/01/15 01:06:32;;;;;;;;;;;;;;;15.11;60.73;99700.22;3154646;28;20047;-55
2022/01/15 01:08:05;;;;;;;0.63;0.63;;;;;;;15.13;60.57;99700.91;3154276;28;19928;-49
2022/01/15 01:09:53;;;;;;;1.40;0.85;;;;;;;15.15;60.65;99691.72;3153416;28;20498;-51
2022/01/15 01:11:40;;;;;;;0.80;0.57;;;;;;;15.19;60.58;99693.09;3155904;28;20052;-50
2022/01/15 01:13:38;;;;;;;1.02;0.60;;;;;;;15.20;60.47;99689.44;3154951;28;20565;-50
2022/01/15 01:20:54;;;;;;;0.88;0.88;;;;;;;15.28;60.41;99691.34;3152548;28;20529;-53
2022/01/15 01:22:54;;;;;;;0.50;0.50;;;;;;;15.30;60.50;99691.19;3153980;28;20064;-55
2022/01/15 01:24:28;;;;;;;1.35;0.90;;;;;;;15.31;60.41;99680.31;3154567;28;20051;-51
2022/01/15 01:26:07;;;;;;;0.80;0.80;;;;;;;15.32;60.20;99690.03;3153013;28;20068;-50
2022/01/15 01:27:46;;;;;;;1.08;0.80;;;;;;;15.33;60.37;99691.72;3152492;28;20075;-51
2022/01/15 01:29:29;;;;;;;1.48;0.68;;;;;;;15.34;60.41;99684.53;3153967;28;20050;-54
2022/01/15 01:31:07;;;;;;;0.95;0.75;;;;;;;15.35;60.41;99691.53;3144665;28;20094;-53
2022/01/15 01:32:49;;;;;;;1.05;0.70;;;;;;;15.37;60.37;99692.22;3147773;28;20117;-51
2022/01/15 01:34:20;;;;;;;0.60;0.50;;;;;;;15.36;60.32;99683.38;3154785;28;20059;-52
2022/01/15 01:36:05;;;;;;;;;;;;;;;15.36;60.14;99683.38;3149580;28;20077;-51
2022/01/15 01:37:40;;;;;;;0.90;0.70;;;;;;;15.38;60.32;99683.22;3150918;28;19931;-54
2022/01/15 01:39:16;;;;;;;1.40;0.73;;;;;;;15.39;60.17;99687.56;3155900;28;20048;-53
2022/01/15 01:40:51;;;;;;;0.98;0.70;;;;;;;15.37;60.21;99685.03;3157041;28;20112;-51
2022/01/15 01:42:38;;;;;;;0.60;0.60;;;;;;;15.37;60.31;99678.84;3157184;28;20205;-50
2022/01/15 01:44:16;;;;;;;0.60;0.57;;;;;;;15.38;60.04;99680.56;3156933;28;20100;-53
2022/01/15 01:45:54;;;;;;;0.50;0.50;;;;;;;15.36;60.08;99678.03;3151131;28;20067;-49
2022/01/15 01:47:35;;;;;;;2.42;1.10;;;;;;;15.37;60.23;99673.50;3157086;28;20571;-52
2022/01/15 01:49:13;;;;;;;1.00;0.88;;;;;;;15.36;60.06;99678.03;3156948;28;20055;-51
2022/01/15 01:50:45;;;;;;;0.40;0.40;;;;;;;15.38;60.11;99662.69;3155169;28;20059;-51
2022/01/15 01:52:17;;;;;;;0.77;0.77;;;;;;;15.37;60.03;99668.16;3156652;28;20059;-51
2022/01/15 01:53:49;;;;;;;0.85;0.75;;;;;;;15.38;60.10;99669.88;3154739;28;20051;-50
2022/01/15 01:55:23;;;;;;;1.05;0.80;;;;;;;15.37;60.13;99671.66;3156078;28;20514;-52
2022/01/15 01:56:57;;;;;;;1.05;0.50;;;;;;;15.37;60.21;99663.66;3155550;28;20060;-54
2022/01/15 01:58:29;;;;;;;0.80;0.80;;;;;;;15.36;60.08;99666.50;3155812;28;20052;-51
2022/01/15 02:00:01;;;;;;;0.88;0.65;;;;;;;15.34;60.13;99666.63;3155434;28;20524;-52
2022/01/15 02:01:33;;;;;;;2.28;0.60;;;;;;;15.35;60.05;99664.81;3154282;28;20389;-51
2022/01/15 02:03:04;;;;;;;0.90;0.60;;;;;;;15.35;60.11;99656.78;3156130;28;20067;-50
2022/01/15 02:04:36;;;;;;;1.00;0.57;;;;;;;15.34;60.27;99657.78;3156045;28;20044;-50
2022/01/15 02:06:08;;;;;;;1.35;0.77;;;;;;;15.33;60.02;99659.63;3156675;28;20592;-49
2022/01/15 02:07:41;;;;;;;0.95;0.70;;;;;;;15.32;60.22;99657.97;3157632;28;20086;-50
2022/01/15 02:09:12;;;;;;;0.93;0.82;;;;;;;15.30;60.27;99657.28;3157726;28;20046;-52
2022/01/15 02:10:44;;;;;;;1.05;0.70;;;;;;;15.30;60.11;99651.94;3155924;28;20044;-52
2022/01/15 02:12:18;;;;;;;0.60;0.60;;;;;;;15.29;60.26;99660.09;3157838;28;20074;-50
2022/01/15 02:13:50;;;;;;;0.50;0.50;;;;;;;15.29;60.28;99650.22;3157251;28;20048;-49
2022/01/15 02:15:23;;;;;;;0.90;0.82;;;;;;;15.27;60.26;99652.25;3156742;28;20678;-51
2022/01/15 02:16:54;;;;;;;1.65;1.25;;;;;;;15.26;60.26;99650.53;3154037;28;20744;-50
2022/01/15 02:18:27;;;;;;;0.73;0.73;;;;;;;15.25;60.23;99648.88;3157623;28;20070;-53
2022/01/15 02:20:24;;;;;;;1.40;0.77;;;;;;;15.24;60.40;99643.69;3155994;28;20051;-51
2022/01/15 02:23:46;;;;;;;1.13;1.02;;;;;;;15.22;60.41;99643.03;3155885;28;20055;-52
2022/01/15 02:25:18;;;;;;;0.82;0.60;;;;;;;15.20;60.26;99637.81;3155414;28;20055;-50
2022/01/15 02:26:50;;;;;;;0.85;0.45;;;;;;;15.21;60.29;99642.19;3153915;28;20043;-51
2022/01/15 02:28:23;;;;;;;0.85;0.40;;;;;;;15.16;60.27;99641.81;3155569;28;20039;-52
2022/01/15 02:29:55;;;;;;;0.50;0.50;;;;;;;15.16;60.39;99639.97;3156040;28;20557;-52
2022/01/15 02:31:29;;;;;;;1.48;1.00;;;;;;;15.16;60.39;99633.81;3155317;28;20047;-51
2022/01/15 02:33:00;;;;;;;0.68;0.63;;;;;;;15.14;60.38;99636.63;3155774;28;20056;-53
2022/01/15 02:34:31;;;;;;;0.88;0.65;;;;;;;15.11;60.36;99626.25;3154958;28;20101;-53
2022/01/15 02:36:04;;;;;;;;;;;;;;;15.10;60.37;99635.25;3155995;28;20088;-52
2022/01/15 02:37:36;;;;;;;1.40;0.70;;;;;;;15.10;60.40;99627.25;3153716;28;19924;-51
2022/01/15 02:39:08;;;;;;;0.57;0.52;;;;;;;15.11;60.45;99614.72;3155815;28;20047;-51
2022/01/15 02:40:40;;;;;;;1.48;1.05;;;;;;;15.08;60.42;99623.06;3155811;28;20536;-51
2022/01/15 02:42:12;;;;;;;2.00;0.80;;;;;;;15.07;60.53;99614.22;3155186;28;20078;-50
2022/01/15 02:43:43;;;;;;;0.82;0.82;;;;;;;15.06;60.45;99611.69;3155036;28;20055;-52
2022/01/15 02:45:21;;;;;;;0.80;0.60;;;;;;;15.04;60.65;99603.81;3155703;28;20063;-52
2022/01/15 02:48:43;;;;;;;1.88;0.68;;;;;;;15.02;60.45;99604.97;3155849;28;20127;-50
2022/01/15 02:50:14;;;;;;;1.10;0.75;;;;;;;15.00;60.47;99602.47;3156106;28;20483;-53
2022/01/15 02:51:48;;;;;;;1.27;0.80;;;;;;;15.00;60.43;99598.94;3155336;28;20040;-49
2022/01/15 02:53:20;;;;;;;1.10;0.80;;;;;;;14.98;60.63;99602.59;3155738;28;20150;-51
2022/01/15 02:54:52;;;;;;;1.13;0.68;;;;;;;14.98;60.55;99604.44;3156080;28;20680;-48
2022/01/15 02:56:25;;;;;;;1.05;0.82;;;;;;;14.97;60.55;99600.94;3154216;28;20132;-51
2022/01/15 02:57:56;;;;;;;0.95;0.77;;;;;;;14.94;60.64;99595.91;3155734;28;20531;-50
2022/01/15 02:59:28;;;;;;;1.35;0.80;;;;;;;14.94;60.49;99595.91;3155803;28;20051;-48
2022/01/15 03:01:00;;;;;;;0.55;0.55;;;;;;;14.94;60.70;99592.41;3150619;28;20697;-48
2022/01/15 03:02:33;;;;;;;1.63;0.80;;;;;;;14.92;60.63;99589.03;3155319;28;20606;-50
2022/01/15 03:04:05;;;;;;;0.60;0.60;;;;;;;14.92;60.69;99589.88;3155717;28;20119;-52
2022/01/15 03:05:37;;;;;;;1.13;0.60;;;;;;;14.90;60.57;99591.03;3155259;28;20065;-51
2022/01/15 03:07:10;;;;;;;0.60;0.60;;;;;;;14.89;60.77;99586.69;3150123;28;20055;-51
2022/01/15 03:08:44;;;;;;;0.70;0.70;;;;;;;14.89;60.67;99592.84;3155598;28;20040;-51
2022/01/15 03:10:16;;;;;;;1.15;0.63;;;;;;;14.85;60.68;99594.19;3157212;28;20059;-53
2022/01/15 03:11:48;;;;;;;1.13;0.85;;;;;;;14.87;60.89;99596.69;3157111;28;20081;-52
2022/01/15 03:13:20;;;;;;;1.33;0.93;;;;;;;14.83;60.80;99593.50;3156614;28;20040;-51
2022/01/15 03:14:55;;;;;;;0.63;0.55;;;;;;;14.82;60.76;99590.97;3155339;28;20581;-51
2022/01/15 03:16:27;;;;;;;0.80;0.75;;;;;;;14.80;60.82;99588.47;3155880;28;20604;-52
2022/01/15 03:17:58;;;;;;;0.90;0.70;;;;;;;14.80;60.91;99591.13;3154359;28;20052;-51
2022/01/15 03:19:29;;;;;;;1.50;1.17;;;;;;;14.81;60.75;99581.28;3155812;28;20131;-49
2022/01/15 03:21:01;;;;;;;1.77;0.75;;;;;;;14.79;60.70;99577.91;3156087;28;20410;-53
2022/01/15 03:22:34;;;;;;;2.25;1.13;;;;;;;14.79;60.86;99581.41;3155320;28;20048;-57
2022/01/15 03:24:06;;;;;;;0.82;0.80;;;;;;;14.77;60.62;99572.75;3156006;28;20043;-49
2022/01/15 03:25:38;;;;;;;1.02;0.70;;;;;;;14.75;60.79;99572.06;3156196;28;20052;-54
2022/01/15 03:27:10;;;;;;;0.73;0.70;;;;;;;14.75;60.66;99574.72;3149625;28;20067;-51
2022/01/15 03:28:43;;;;;;;0.70;0.60;;;;;;;14.71;60.74;99571.53;3155405;28;20040;-49
2022/01/15 03:30:16;;;;;;;0.70;0.70;;;;;;;14.70;60.90;99575.19;3154626;28;20044;-52
2022/01/15 03:31:47;;;;;;;1.55;1.27;;;;;;;14.69;60.91;99573.53;3156201;28;20063;-50
2022/01/15 03:33:19;;;;;;;0.82;0.70;;;;;;;14.68;61.05;99573.66;3156749;28;20535;-50
2022/01/15 03:34:51;;;;;;;0.70;0.70;;;;;;;14.67;60.94;99570.16;3155234;28;20047;-52
2022/01/15 03:36:23;;;;;;;2.35;1.00;;;;;;;14.65;61.00;99572.13;3155246;28;20056;-50
2022/01/15 03:37:56;;;;;;;1.23;0.60;;;;;;;14.65;60.95;99571.31;3154175;28;20047;-50
2022/01/15 03:39:28;;;;;;;0.82;0.82;;;;;;;14.65;60.94;99576.66;3156314;28;20129;-53
2022/01/15 03:41:00;;;;;;;1.20;0.52;;;;;;;14.63;60.98;99581.31;3155977;28;20048;-52
2022/01/15 03:42:32;;;;;;;1.73;0.88;;;;;;;14.61;61.01;99576.13;3156532;28;20051;-49
2022/01/15 03:44:04;;;;;;;1.33;0.73;;;;;;;14.60;60.73;99570.94;3156161;28;20044;-49
2022/01/15 03:45:36;;;;;;;0.73;0.65;;;;;;;14.60;60.93;99574.47;3154243;28;20052;-50
2022/01/15 03:47:08;;;;;;;1.13;0.82;;;;;;;14.60;60.99;99568.25;3156484;28;20055;-53
2022/01/15 03:48:40;;;;;;;1.27;0.70;;;;;;;14.60;60.97;99573.59;3155562;28;20036;-49
2022/01/15 03:50:13;;;;;;;1.42;0.63;;;;;;;14.60;60.98;99562.91;3156483;28;20055;-52
2022/01/15 03:51:45;;;;;;;1.42;0.90;;;;;;;14.62;61.01;99569.78;3156421;28;20047;-51
2022/01/15 03:53:20;;;;;;;1.20;0.80;;;;;;;14.61;60.92;99565.44;3155702;28;20497;-53
2022/01/15 03:54:51;;;;;;;1.10;0.80;;;;;;;14.62;60.88;99563.59;3155128;28;20044;-53
2022/01/15 03:56:23;;;;;;;3.50;0.82;;;;;;;14.62;60.95;99561.78;3156736;28;20127;-50
2022/01/15 03:57:54;;;;;;;0.80;0.80;;;;;;;14.62;61.05;99560.94;3154766;28;20441;-50
2022/01/15 03:59:26;;;;;;;1.10;0.68;;;;;;;14.61;61.09;99560.09;3155558;28;20048;-49
2022/01/15 04:00:58;;;;;;;1.17;0.70;;;;;;;14.59;60.85;99558.59;3156387;28;20052;-52
2022/01/15 04:02:29;;;;;;;0.90;0.60;;;;;;;14.58;61.15;99565.75;3156626;28;20044;-50
2022/01/15 04:04:01;;;;;;;1.40;0.90;;;;;;;14.58;60.93;99556.91;3154661;28;20055;-53
2022/01/15 04:05:33;;;;;;;1.27;0.85;;;;;;;14.58;61.24;99564.94;3155561;28;20298;-49
2022/01/15 04:07:05;;;;;;;0.68;0.55;;;;;;;14.57;61.12;99558.75;3155661;28;20048;-51
2022/01/15 04:08:38;;;;;;;1.00;0.85;;;;;;;14.57;60.98;99563.22;3154682;28;20044;-50
2022/01/15 04:10:13;;;;;;;1.73;0.90;;;;;;;14.57;61.16;99557.88;3155082;28;20043;-52
2022/01/15 04:11:45;;;;;;;2.20;1.13;;;;;;;14.56;61.04;99554.38;3153487;28;20418;-52
2022/01/15 04:13:19;;;;;;;1.10;0.82;;;;;;;14.55;61.19;99559.91;3155646;28;20043;-51
2022/01/15 04:14:50;;;;;;;1.00;0.75;;;;;;;14.53;61.11;99552.88;3155134;28;20040;-50
2022/01/15 04:16:22;;;;;;;0.60;0.52;;;;;;;14.54;61.05;99559.03;3155984;28;20060;-49
2022/01/15 04:17:54;;;;;;;0.77;0.75;;;;;;;14.53;61.24;99557.38;3152828;28;20501;-51
2022/01/15 04:19:28;;;;;;;1.05;0.80;;;;;;;14.52;60.98;99548.53;3155536;28;20518;-52
2022/01/15 04:21:00;;;;;;;0.98;0.88;;;;;;;14.50;61.04;99557.66;3155416;28;20060;-50
2022/01/15 04:22:32;;;;;;;0.75;0.50;;;;;;;14.49;61.13;99546.13;3155490;28;20437;-50
2022/01/15 04:24:06;;;;;;;1.27;0.98;;;;;;;14.48;61.29;99549.78;3154716;28;20059;-51
2022/01/15 04:25:37;;;;;;;0.60;0.60;;;;;;;14.48;61.18;99548.94;3150245;28;20104;-50
2022/01/15 04:27:09;;;;;;;0.57;0.40;;;;;;;14.48;60.81;99556.97;3155171;28;20589;-53
2022/01/15 04:28:41;;;;;;;0.52;0.40;;;;;;;14.48;61.13;99548.94;3152619;28;20339;-49
2022/01/15 04:30:15;;;;;;;1.13;1.02;;;;;;;14.47;60.94;99550.78;3154236;28;20080;-54
2022/01/15 04:31:47;;;;;;;0.60;0.52;;;;;;;14.46;61.04;99542.94;3154901;28;20047;-50
2022/01/15 04:33:19;;;;;;;0.82;0.73;;;;;;;14.46;60.99;99545.63;3153937;28;20048;-50
2022/01/15 04:34:51;;;;;;;0.88;0.80;;;;;;;14.44;61.18;99539.59;3152382;28;20048;-51
2022/01/15 04:36:23;;;;;;;2.00;0.70;;;;;;;14.43;61.01;99538.75;3155165;28;20048;-49
2022/01/15 04:38:02;;;;;;;0.98;0.73;;;;;;;14.43;61.20;99541.44;3154412;28;20082;-50
2022/01/15 04:39:36;;;;;;;1.17;1.08;;;;;;;14.41;61.14;99542.56;3154390;28;20494;-55
2022/01/15 04:41:09;;;;;;;0.75;0.75;;;;;;;14.40;61.11;99540.88;3154834;28;20047;-50
2022/01/15 04:42:41;;;;;;;0.70;0.70;;;;;;;14.40;61.16;99536.41;3153273;28;20039;-50
2022/01/15 04:44:13;;;;;;;0.60;0.60;;;;;;;14.39;61.18;99541.88;3146794;28;20101;-50
2022/01/15 04:45:45;;;;;;;1.40;0.82;;;;;;;14.38;61.06;99535.72;3152674;28;20048;-49
2022/01/15 04:47:17;;;;;;;0.75;0.52;;;;;;;14.39;61.13;99540.03;3154528;28;20501;-49
2022/01/15 04:48:48;;;;;;;1.02;0.63;;;;;;;14.37;61.12;99538.53;3154598;28;20125;-51
2022/01/15 04:50:21;;;;;;;0.82;0.70;;;;;;;14.37;61.38;99538.53;3154876;28;20689;-53
2022/01/15 04:51:52;;;;;;;0.60;0.57;;;;;;;14.35;61.25;99535.16;3153944;28;20044;-49
2022/01/15 04:53:23;;;;;;;1.00;0.90;;;;;;;14.33;61.15;99532.66;3152577;28;20035;-49
2022/01/15 04:54:57;;;;;;;1.50;0.82;;;;;;;14.34;61.24;99538.81;3152873;28;20060;-52
2022/01/15 04:56:29;;;;;;;0.80;0.80;;;;;;;14.33;61.31;99531.81;3155013;28;20051;-52
2022/01/15 04:57:59;;;;;;;2.40;0.70;;;;;;;14.33;61.32;99538.00;3154376;28;20051;-51
2022/01/15 04:59:31;;;;;;;0.90;0.70;;;;;;;14.31;61.26;99539.97;3154054;28;20261;-51
2022/01/15 05:01:03;;;;;;;0.57;0.57;;;;;;;14.28;61.30;99543.78;3147404;28;20310;-52
2022/01/15 05:02:35;;;;;;;1.15;0.82;;;;;;;14.30;61.34;99540.97;3150050;28;20056;-50
2022/01/15 05:04:07;;;;;;;0.70;0.70;;;;;;;14.30;61.17;99546.31;3154888;28;20322;-49
2022/01/15 05:05:39;;;;;;;1.65;0.77;;;;;;;14.28;61.44;99535.78;3153975;28;20048;-51
2022/01/15 05:07:11;;;;;;;0.70;0.52;;;;;;;14.28;61.35;99540.28;3155405;28;20116;-51
2022/01/15 05:08:45;;;;;;;1.15;0.80;;;;;;;14.28;61.31;99535.78;3153940;28;20383;-51
2022/01/15 05:10:20;;;;;;;1.80;0.90;;;;;;;14.30;61.36;99538.31;3152412;28;20052;-49
2022/01/15 05:12:01;;;;;;;0.60;0.40;;;;;;;14.34;61.17;99541.50;3154491;28;21175;-49
2022/01/15 05:13:34;;;;;;;1.00;0.65;;;;;;;14.40;61.21;99539.06;3154757;28;20543;-53
2022/01/15 05:15:07;;;;;;;0.57;0.57;;;;;;;14.47;61.17;99548.13;3152962;28;20044;-50
2022/01/15 05:16:39;;;;;;;1.08;0.88;;;;;;;14.56;61.14;99548.22;3152146;28;20081;-50
2022/01/15 05:18:11;;;;;;;0.88;0.82;;;;;;;14.61;60.99;99541.41;3147343;28;20043;-51
2022/01/15 05:19:43;;;;;;;0.40;0.40;;;;;;;14.69;61.02;99541.47;3151600;28;20317;-51
2022/01/15 05:21:14;;;;;;;1.30;1.10;;;;;;;14.76;60.89;99536.34;3152545;28;20051;-52
2022/01/15 05:22:47;;;;;;;1.55;0.80;;;;;;;14.81;60.82;99539.38;3154071;28;20047;-52
2022/01/15 05:24:19;;;;;;;1.52;0.90;;;;;;;14.89;60.70;99544.78;3153130;28;20040;-52
2022/01/15 05:25:52;;;;;;;0.40;0.40;;;;;;;14.93;60.64;99543.47;3153215;28;20067;-51
2022/01/15 05:27:24;;;;;;;1.15;0.73;;;;;;;14.98;60.58;99535.81;3154092;28;20532;-49
2022/01/15 05:28:56;;;;;;;1.13;1.02;;;;;;;15.05;60.35;99535.19;3151444;28;20059;-49
2022/01/15 05:30:30;;;;;;;0.73;0.50;;;;;;;15.11;60.58;99534.56;3152949;28;20132;-51
2022/01/15 05:32:02;;;;;;;0.60;0.60;;;;;;;15.18;60.19;99538.25;3153943;28;20463;-49
2022/01/15 05:33:33;;;;;;;0.77;0.70;;;;;;;15.22;60.11;99539.63;3153663;28;20047;-50
2022/01/15 05:35:06;;;;;;;1.00;0.95;;;;;;;15.27;60.17;99537.31;3152893;28;20048;-50
2022/01/15 05:36:39;;;;;;;0.95;0.55;;;;;;;15.32;60.24;99532.34;3152433;28;20051;-50
2022/01/15 05:38:11;;;;;;;1.15;0.75;;;;;;;15.37;60.04;99539.84;3153226;28;20571;-51
2022/01/15 05:39:43;;;;;;;0.80;0.63;;;;;;;15.41;60.06;99539.38;3152672;28;20591;-48
2022/01/15 05:41:16;;;;;;;0.45;0.45;;;;;;;15.47;59.90;99540.56;3153632;28;20040;-51
2022/01/15 05:42:48;;;;;;;0.70;0.50;;;;;;;15.52;59.88;99538.25;3153692;28;20056;-52
2022/01/15 05:44:20;;;;;;;0.70;0.60;;;;;;;15.56;59.91;99539.59;3152465;28;20051;-49
2022/01/15 05:45:52;;;;;;;0.77;0.70;;;;;;;15.61;59.89;99539.13;3150844;28;20040;-50
2022/01/15 05:47:24;;;;;;;0.60;0.60;;;;;;;15.64;59.82;99533.44;3154782;28;20090;-51
2022/01/15 05:48:56;;;;;;;0.77;0.55;;;;;;;15.68;59.71;99534.81;3154802;28;20494;-51
2022/01/15 05:50:28;;;;;;;1.00;0.90;;;;;;;15.72;59.72;99533.50;3154508;28;20044;-51
2022/01/15 05:52:00;;;;;;;1.40;0.50;;;;;;;15.74;59.56;99531.50;3152652;28;20044;-49
2022/01/15 05:53:32;;;;;;;0.80;0.47;;;;;;;15.77;59.58;99528.50;3155670;28;20079;-48
2022/01/15 05:55:05;;;;;;;1.33;0.55;;;;;;;15.79;59.58;99529.16;3152109;28;20063;-51
2022/01/15 05:56:38;;;;;;;2.35;1.42;;;;;;;15.80;59.55;99533.53;3154588;28;20089;-50
2022/01/15 05:58:10;;;;;;;0.80;0.50;;;;;;;15.83;59.43;99535.88;3155017;28;20048;-53
2022/01/15 05:59:42;;;;;;;0.55;0.55;;;;;;;15.84;59.53;99532.19;3153188;28;20051;-50
2022/01/15 06:01:14;;;;;;;0.43;0.43;;;;;;;15.87;59.55;99536.38;3152947;28;20052;-50
2022/01/15 06:02:46;;;;;;;1.20;0.70;;;;;;;15.89;59.65;99528.19;3153365;28;20413;-49
2022/01/15 06:04:18;;;;;;;0.52;0.45;;;;;;;15.89;59.32;99529.03;3150775;28;20056;-49
2022/01/15 06:05:50;;;;;;;0.55;0.50;;;;;;;15.91;59.43;99529.72;3151924;28;20044;-49
2022/01/15 06:07:22;;;;;;;0.90;0.70;;;;;;;15.92;59.32;99539.41;3154360;28;20052;-50
2022/01/15 06:08:53;;;;;;;0.57;0.50;;;;;;;15.94;59.42;99532.06;3153538;28;20070;-50
2022/01/15 06:10:24;;;;;;;0.70;0.40;;;;;;;15.96;59.30;99539.91;3153464;28;20040;-49
2022/01/15 06:12:00;;;;;;;0.93;0.50;;;;;;;15.97;59.44;99531.72;3153724;28;20094;-50
2022/01/15 06:13:32;;;;;;;0.73;0.50;;;;;;;15.99;59.26;99539.56;3151717;28;20105;-50
2022/01/15 06:15:04;;;;;;;0.60;0.60;;;;;;;16.02;59.44;99544.63;3149460;28;20048;-53
2022/01/15 06:16:37;;;;;;;0.65;0.50;;;;;;;16.03;59.20;99540.94;3152806;28;20044;-50
2022/01/15 06:18:09;;;;;;;0.85;0.60;;;;;;;16.05;59.27;99546.97;3153452;28;20044;-50
2022/01/15 06:19:40;;;;;;;0.50;0.50;;;;;;;16.05;59.12;99538.94;3153182;28;20089;-51
2022/01/15 06:21:11;;;;;;;0.80;0.73;;;;;;;16.06;59.26;99535.25;3153209;28;20131;-51
2022/01/15 06:22:43;;;;;;;1.15;0.73;;;;;;;16.08;59.14;99535.94;3154748;28;20298;-51
2022/01/15 06:24:15;;;;;;;1.05;0.77;;;;;;;16.08;59.06;99543.97;3156653;28;20048;-50
2022/01/15 06:25:47;;;;;;;0.75;0.70;;;;;;;16.08;59.01;99550.13;3149332;28;20055;-50
2022/01/15 06:27:20;;;;;;;0.70;0.70;;;;;;;16.08;59.17;99544.78;3155632;28;20050;-50
2022/01/15 06:28:52;;;;;;;0.80;0.63;;;;;;;16.08;59.08;99554.66;3155175;28;20524;-51
2022/01/15 06:30:24;;;;;;;1.10;0.60;;;;;;;16.10;59.14;99557.97;3157563;28;20051;-50
2022/01/15 06:31:56;;;;;;;1.85;0.77;;;;;;;16.07;59.21;99548.47;3156094;28;20055;-51
2022/01/15 06:33:28;;;;;;;1.52;0.63;;;;;;;16.07;59.17;99553.81;3157115;28;20602;-51
2022/01/15 06:35:00;;;;;;;0.90;0.60;;;;;;;16.08;59.08;99558.16;3154103;28;20055;-49
2022/01/15 06:36:32;;;;;;;0.85;0.63;;;;;;;16.06;59.22;99557.50;3156499;28;20055;-52
2022/01/15 06:38:04;;;;;;;0.77;0.77;;;;;;;16.07;59.00;99555.63;3156426;28;20059;-49
2022/01/15 06:39:36;;;;;;;0.88;0.55;;;;;;;16.07;59.13;99558.31;3156117;28;20047;-50
2022/01/15 06:41:08;;;;;;;0.52;0.52;;;;;;;16.06;59.10;99557.50;3150741;28;20093;-51
2022/01/15 06:42:41;;;;;;;0.52;0.50;;;;;;;16.07;59.11;99553.81;3156436;28;20979;-50
2022/01/15 06:44:13;;;;;;;0.47;0.47;;;;;;;16.08;59.05;99557.34;3149691;28;20055;-50
2022/01/15 06:45:45;;;;;;;0.50;0.50;;;;;;;16.08;58.96;99554.66;3155743;28;20067;-51
2022/01/15 06:47:17;;;;;;;1.15;0.60;;;;;;;16.08;59.09;99560.00;3156324;28;20586;-50
2022/01/15 06:48:49;;;;;;;0.77;0.65;;;;;;;16.08;58.90;99565.38;3156012;28;20049;-51
2022/01/15 06:50:22;;;;;;;0.60;0.60;;;;;;;16.10;59.12;99560.66;3156227;28;20063;-51
2022/01/15 06:51:54;;;;;;;0.80;0.70;;;;;;;16.12;59.01;99564.03;3156107;28;20051;-51
2022/01/15 06:53:26;;;;;;;0.93;0.70;;;;;;;16.12;58.94;99558.66;3156465;28;20064;-54
2022/01/15 06:54:58;;;;;;;1.10;0.55;;;;;;;16.13;58.94;99563.03;3155357;28;20462;-50
2022/01/15 06:56:30;;;;;;;0.52;0.30;;;;;;;16.14;59.00;99559.34;3156903;28;20047;-51
2022/01/15 06:58:04;;;;;;;0.40;0.40;;;;;;;16.15;58.99;99566.34;3154045;28;20051;-49
2022/01/15 06:59:34;;;;;;;1.20;0.90;;;;;;;16.17;59.05;99577.75;3156371;28;20518;-49
2022/01/15 07:01:06;;;;;;;0.47;0.47;;;;;;;16.16;59.01;99573.41;3152048;28;20055;-50
2022/01/15 07:02:39;;;;;;;0.60;0.60;;;;;;;16.18;58.83;99583.94;3155403;27;20949;-50
2022/01/15 07:04:11;;;;;;;1.98;0.47;;;;;;;16.18;58.95;99578.59;3156158;28;20040;-50
2022/01/15 07:05:43;;;;;;;0.40;0.40;;;;;;;16.18;58.97;99575.91;3155633;28;20044;-52
2022/01/15 07:07:14;;;;;;;1.05;0.40;;;;;;;16.18;58.96;99587.44;3156046;28;20849;-51
2022/01/15 07:08:46;;;;;;;0.50;0.50;;;;;;;16.18;58.87;99587.44;3153926;28;20044;-50
2022/01/15 07:10:18;;;;;;;1.40;0.57;;;;;;;16.16;58.87;99581.44;3156285;28;20051;-50
2022/01/15 07:11:50;;;;;;;0.65;0.38;;;;;;;16.18;58.98;99582.09;3155198;28;20036;-51
2022/01/15 07:13:25;;;;;;;0.50;0.50;;;;;;;16.18;58.95;99592.78;3156795;28;20494;-52
2022/01/15 07:14:57;;;;;;;0.40;0.40;;;;;;;16.18;59.01;99598.16;3155328;28;20555;-50
2022/01/15 07:16:29;;;;;;;1.08;0.55;;;;;;;16.14;58.90;99599.50;3155368;28;20063;-51
2022/01/15 07:18:02;;;;;;;0.50;0.50;;;;;;;16.17;58.98;99601.84;3155576;28;20056;-50
2022/01/15 07:19:33;;;;;;;1.00;0.63;;;;;;;16.17;58.84;99601.84;3156060;28;20120;-50
2022/01/15 07:21:05;;;;;;;0.57;0.47;;;;;;;16.16;58.99;99599.31;3156177;28;20044;-51
2022/01/15 07:22:38;;;;;;;0.40;0.40;;;;;;;16.14;59.10;99599.50;3154863;28;20048;-49
2022/01/15 07:24:11;;;;;;;0.85;0.57;;;;;;;16.15;58.81;99613.72;3156501;28;20044;-49
2022/01/15 07:25:43;;;;;;;0.60;0.50;;;;;;;16.14;59.05;99602.16;3154209;28;20731;-53
2022/01/15 07:27:15;;;;;;;0.98;0.90;;;;;;;16.14;58.90;99604.84;3156196;28;20051;-50
2022/01/15 07:28:48;;;;;;;0.57;0.50;;;;;;;16.14;58.82;99604.84;3154053;28;20059;-52